createdAt,value
2024-05-09T00:01:50.386Z,101163.24
2024-05-09T00:06:53.102Z,101160.28
2024-05-09T00:11:55.979Z,101167.92
2024-05-09T00:16:58.699Z,101170.25
2024-05-09T00:22:01.365Z,101171.98
2024-05-09T00:27:04.600Z,101175.84
2024-05-09T00:32:08.432Z,101177.48
2024-05-09T00:37:11.142Z,101176.70
2024-05-09T00:42:14.178Z,101177.08
2024-05-09T00:47:54.795Z,101180.56
2024-05-09T00:52:57.813Z,101184.95
2024-05-09T00:58:02.471Z,101186.52
2024-05-09T01:03:05.573Z,101185.63
2024-05-09T01:08:09.656Z,101184.79
2024-05-09T01:13:12.904Z,101182.47
2024-05-09T01:18:16.182Z,101182.15
2024-05-09T01:23:18.991Z,101178.44
2024-05-09T01:28:21.751Z,101178.78
2024-05-09T01:33:24.663Z,101180.55
2024-05-09T01:38:27.522Z,101175.52
2024-05-09T01:43:30.512Z,101177.84
2024-05-09T01:48:33.285Z,101175.20
2024-05-09T01:53:36.485Z,101178.84
2024-05-09T01:58:39.444Z,101179.83
2024-05-09T02:03:46.570Z,101178.48
2024-05-09T02:08:49.541Z,101182.14
2024-05-09T02:13:52.493Z,101188.83
2024-05-09T02:18:55.231Z,101184.95
2024-05-09T02:23:57.947Z,101185.48
2024-05-09T02:29:00.964Z,101187.76
2024-05-09T02:34:04.009Z,101190.28
2024-05-09T02:39:06.877Z,101190.91
2024-05-09T02:44:09.871Z,101193.65
2024-05-09T02:49:12.734Z,101193.86
2024-05-09T02:54:15.800Z,101194.23
2024-05-09T02:59:18.731Z,101196.77
2024-05-09T03:04:21.596Z,101197.23
2024-05-09T03:09:24.339Z,101203.80
2024-05-09T03:14:27.204Z,101200.95
2024-05-09T03:19:30.027Z,101202.02
2024-05-09T03:24:32.821Z,101198.47
2024-05-09T03:29:36.736Z,101203.29
2024-05-09T03:34:39.512Z,101211.59
2024-05-09T03:39:42.213Z,101216.95
2024-05-09T03:44:46.163Z,101213.36
2024-05-09T03:49:48.957Z,101209.63
2024-05-09T03:54:51.993Z,101209.87
2024-05-09T03:59:54.670Z,101210.11
2024-05-09T04:04:57.432Z,101203.54
2024-05-09T04:10:00.234Z,101204.83
2024-05-09T04:15:03.557Z,101211.04
2024-05-09T04:20:08.546Z,101211.92
2024-05-09T04:25:13.319Z,101213.11
2024-05-09T04:30:25.412Z,101210.64
2024-05-09T04:35:33.894Z,101210.13
2024-05-09T04:40:38.337Z,101209.70
2024-05-09T04:45:41.690Z,101205.09
2024-05-09T04:50:44.481Z,101201.09
2024-05-09T04:55:47.377Z,101203.05
2024-05-09T05:00:50.205Z,101197.16
2024-05-09T05:05:53.091Z,101199.38
2024-05-09T05:10:56.295Z,101205.34
2024-05-09T05:15:59.231Z,101210.34
2024-05-09T05:21:02.008Z,101209.70
2024-05-09T05:26:05.117Z,101215.07
2024-05-09T05:31:07.871Z,101218.42
2024-05-09T05:36:13.454Z,101216.55
2024-05-09T05:41:16.273Z,101207.13
2024-05-09T05:46:20.148Z,101203.25
2024-05-09T05:51:22.905Z,101199.39
2024-05-09T05:56:26.425Z,101202.43
2024-05-09T06:01:30.367Z,101204.16
2024-05-09T06:06:33.113Z,101199.82
2024-05-09T06:11:36.072Z,101199.87
2024-05-09T06:16:39.875Z,101198.17
2024-05-09T06:21:42.617Z,101206.99
2024-05-09T06:26:46.327Z,101208.72
2024-05-09T06:31:49.501Z,101201.30
2024-05-09T06:36:52.231Z,101199.17
2024-05-09T06:41:54.889Z,101190.36
2024-05-09T06:46:59.691Z,101181.02
2024-05-09T06:52:03.692Z,101180.20
2024-05-09T06:57:06.527Z,101186.52
2024-05-09T07:02:09.471Z,101182.67
2024-05-09T07:07:12.253Z,101179.95
2024-05-09T07:12:15.364Z,101173.13
2024-05-09T07:17:18.252Z,101172.63
2024-05-09T07:22:20.966Z,101170.71
2024-05-09T07:27:27.649Z,101172.40
2024-05-09T07:32:30.558Z,101167.16
2024-05-09T07:37:33.368Z,101162.54
2024-05-09T07:42:36.159Z,101158.83
2024-05-09T07:49:11.908Z,101156.38
2024-05-09T07:53:36.113Z,101156.58
2024-05-09T07:58:27.490Z,101148.71
2024-05-09T08:03:31.441Z,101149.52
2024-05-09T08:08:34.445Z,101141.80
2024-05-09T08:13:38.391Z,101136.85
2024-05-09T08:18:41.390Z,101133.11
2024-05-09T08:23:44.201Z,101131.86
2024-05-09T08:28:46.960Z,101133.10
2024-05-09T08:33:52.804Z,101129.45
2024-05-09T08:38:56.799Z,101121.35
2024-05-09T08:43:59.827Z,101120.56
2024-05-09T08:49:03.425Z,101113.25
2024-05-09T08:54:06.239Z,101114.24
2024-05-09T08:59:13.346Z,101115.03
2024-05-09T09:04:17.675Z,101113.27
2024-05-09T09:09:21.507Z,101112.48
2024-05-09T09:14:24.260Z,101112.02
2024-05-09T09:19:28.153Z,101106.23
2024-05-09T09:24:31.025Z,101098.80
2024-05-09T09:29:34.204Z,101092.81
2024-05-09T09:34:37.115Z,101091.85
2024-05-09T09:39:41.916Z,101084.41
2024-05-09T09:44:57.667Z,101085.77
2024-05-09T09:50:11.824Z,101082.75
2024-05-09T09:55:17.828Z,101074.86
2024-05-09T10:00:27.212Z,101072.77
2024-05-09T10:05:35.598Z,101071.10
2024-05-09T10:10:38.907Z,101072.15
2024-05-09T10:15:53.773Z,101062.34
2024-05-09T10:20:59.244Z,101059.43
2024-05-09T10:26:04.624Z,101058.62
2024-05-09T10:31:08.612Z,101053.16
2024-05-09T10:36:21.770Z,101053.66
2024-05-09T10:41:24.646Z,101043.71
2024-05-09T10:46:27.468Z,101049.81
2024-05-09T10:51:30.604Z,101045.38
2024-05-09T10:56:33.381Z,101031.98
2024-05-09T11:01:36.402Z,101027.15
2024-05-09T11:06:39.770Z,101023.31
2024-05-09T11:11:42.710Z,101015.30
2024-05-09T11:16:47.140Z,101006.60
2024-05-09T11:21:52.670Z,101005.42
2024-05-09T11:27:01.539Z,101002.41
2024-05-09T11:32:08.398Z,100994.86
2024-05-09T11:37:13.809Z,100988.65
2024-05-09T11:42:17.373Z,100986.77
2024-05-09T11:47:21.434Z,100987.07
2024-05-09T11:52:24.254Z,100981.40
2024-05-09T11:57:29.364Z,100975.63
2024-05-09T12:02:32.184Z,100973.02
2024-05-09T12:07:34.968Z,100971.60
2024-05-09T12:12:37.734Z,100967.44
2024-05-09T12:17:40.695Z,100969.80
2024-05-09T12:22:43.454Z,100962.16
2024-05-09T12:27:46.297Z,100956.90
2024-05-09T12:32:49.470Z,100952.32
2024-05-09T12:37:53.424Z,100949.20
2024-05-09T12:42:56.325Z,100949.34
2024-05-09T12:47:59.602Z,100945.67
2024-05-09T12:53:40.286Z,100940.26
2024-05-09T12:58:43.085Z,100930.17
2024-05-09T13:03:45.995Z,100924.94
2024-05-09T13:08:48.983Z,100919.29
2024-05-09T13:13:51.686Z,100912.29
2024-05-09T13:19:13.195Z,100910.27
2024-05-09T13:24:15.956Z,100910.78
2024-05-09T13:29:19.023Z,100907.49
2024-05-09T13:34:21.802Z,100898.06
2024-05-09T13:39:24.521Z,100893.05
2024-05-09T13:44:27.225Z,100887.39
2024-05-09T13:49:30.204Z,100884.19
2024-05-09T13:54:33.030Z,100884.02
2024-05-09T13:59:36.845Z,100885.52
2024-05-09T14:04:39.710Z,100885.62
2024-05-09T14:09:42.773Z,100874.34
2024-05-09T14:14:45.671Z,100864.80
2024-05-09T14:19:48.405Z,100860.54
2024-05-09T14:24:51.158Z,100858.00
2024-05-09T14:29:54.098Z,100855.16
2024-05-09T14:34:56.927Z,100849.20
2024-05-09T14:39:59.863Z,100845.73
2024-05-09T14:45:03.056Z,100840.35
2024-05-09T14:50:07.073Z,100836.29
2024-05-09T14:55:12.448Z,100829.46
2024-05-09T15:00:24.687Z,100825.66
2024-05-09T15:05:31.410Z,100822.70
2024-05-09T15:10:36.414Z,100816.30
2024-05-09T15:15:40.205Z,100812.94
2024-05-09T15:20:46.141Z,100811.73
2024-05-09T15:25:49.294Z,100808.81
2024-05-09T15:30:52.019Z,100799.25
2024-05-09T15:35:54.769Z,100790.89
2024-05-09T15:40:57.590Z,100789.91
2024-05-09T15:46:01.587Z,100781.80
2024-05-09T15:51:04.515Z,100783.60
2024-05-09T15:56:09.998Z,100780.54
2024-05-09T16:01:14.774Z,100776.59
2024-05-09T16:06:17.855Z,100769.36
2024-05-09T16:11:21.626Z,100762.91
2024-05-09T16:16:24.567Z,100761.84
2024-05-09T16:21:27.342Z,100760.94
2024-05-09T16:26:30.103Z,100756.59
2024-05-09T16:31:32.785Z,100751.75
2024-05-09T16:36:35.667Z,100747.33
2024-05-09T16:41:38.452Z,100747.36
2024-05-09T16:46:41.256Z,100744.05
2024-05-09T16:51:43.966Z,100741.33
2024-05-09T16:56:46.791Z,100740.77
2024-05-09T17:01:50.509Z,100732.08
2024-05-09T17:06:54.254Z,100736.02
2024-05-09T17:11:57.960Z,100734.71
2024-05-09T17:17:00.870Z,100737.09
2024-05-09T17:22:04.020Z,100734.02
2024-05-09T17:27:07.742Z,100736.14
2024-05-09T17:32:10.563Z,100739.11
2024-05-09T17:37:13.480Z,100741.05
2024-05-09T17:42:16.282Z,100741.70
2024-05-09T17:47:19.409Z,100744.39
2024-05-09T17:52:22.325Z,100743.51
2024-05-09T17:57:26.076Z,100752.14
2024-05-09T18:02:28.917Z,100747.01
2024-05-09T18:07:32.223Z,100749.94
2024-05-09T18:12:35.995Z,100753.09
2024-05-09T18:17:39.354Z,100757.61
2024-05-09T18:22:43.236Z,100763.48
2024-05-09T18:27:47.844Z,100772.91
2024-05-09T18:32:50.725Z,100775.64
2024-05-09T18:37:54.836Z,100781.02
2024-05-09T18:42:57.791Z,100789.45
2024-05-09T18:48:01.731Z,100791.98
2024-05-09T18:53:08.721Z,100797.92
2024-05-09T18:58:12.840Z,100799.28
2024-05-09T19:03:16.007Z,100801.48
2024-05-09T19:08:19.273Z,100796.89
2024-05-09T19:13:22.192Z,100800.02
2024-05-09T19:18:25.184Z,100805.20
2024-05-09T19:23:28.981Z,100802.58
2024-05-09T19:28:31.959Z,100803.30
2024-05-09T19:33:36.802Z,100803.44
2024-05-09T19:38:39.598Z,100806.13
2024-05-09T19:43:42.392Z,100805.11
2024-05-09T19:48:45.299Z,100805.09
2024-05-09T19:53:50.378Z,100804.73
2024-05-09T19:58:53.148Z,100805.91
2024-05-09T20:03:58.953Z,100810.27
2024-05-09T20:09:01.792Z,100804.55
2024-05-09T20:14:04.584Z,100808.23
2024-05-09T20:19:07.502Z,100811.38
2024-05-09T20:24:10.475Z,100809.27
2024-05-09T20:29:13.292Z,100807.52
2024-05-09T20:34:17.079Z,100803.48
2024-05-09T20:39:25.155Z,100802.27
2024-05-09T20:44:27.818Z,100803.64
2024-05-09T20:49:30.577Z,100801.51
2024-05-09T20:54:33.515Z,100797.17
2024-05-09T20:59:37.631Z,100799.51
2024-05-09T21:04:40.649Z,100795.57
2024-05-09T21:09:43.801Z,100795.72
2024-05-09T21:14:46.502Z,100796.89
2024-05-09T21:19:50.289Z,100794.92
2024-05-09T21:24:53.161Z,100795.35
2024-05-09T21:29:55.898Z,100792.00
2024-05-09T21:34:58.730Z,100787.14
2024-05-09T21:40:09.170Z,100787.42
2024-05-09T21:45:14.209Z,100797.39
2024-05-09T21:50:22.792Z,100801.15
2024-05-09T21:55:31.051Z,100797.13
2024-05-09T22:00:38.017Z,100799.45
2024-05-09T22:05:43.961Z,100797.77
2024-05-09T22:10:47.014Z,100797.64
2024-05-09T22:15:49.879Z,100797.62
2024-05-09T22:20:53.652Z,100792.23
2024-05-09T22:25:56.512Z,100791.19
2024-05-09T22:30:59.254Z,100788.70
2024-05-09T22:36:03.266Z,100793.05
2024-05-09T22:41:07.473Z,100797.62
2024-05-09T22:46:10.267Z,100794.86
2024-05-09T22:51:12.986Z,100789.80
2024-05-09T22:56:26.640Z,100793.39
2024-05-09T23:01:29.484Z,100794.79
2024-05-09T23:06:32.318Z,100789.52
2024-05-09T23:11:35.145Z,100790.56
2024-05-09T23:16:37.928Z,100792.77
2024-05-09T23:21:41.274Z,100793.76
2024-05-09T23:26:44.440Z,100788.85
2024-05-09T23:31:47.129Z,100784.38
2024-05-09T23:36:49.840Z,100780.67
2024-05-09T23:41:52.591Z,100782.84
2024-05-09T23:46:55.612Z,100783.43
2024-05-09T23:51:58.634Z,100780.22
2024-05-09T23:57:01.475Z,100776.62
